createdAt,value
2018-11-03T00:00:44.044Z,21.07
2018-11-03T00:03:12.654Z,18.47
2018-11-03T00:05:40.963Z,16.70
2018-11-03T00:08:09.395Z,18.83
2018-11-03T00:10:37.706Z,19.10
2018-11-03T00:13:06.334Z,17.53
2018-11-03T00:15:35.027Z,17.90
2018-11-03T00:18:03.356Z,26.83
2018-11-03T00:20:31.670Z,31.20
2018-11-03T00:22:59.989Z,28.33
2018-11-03T00:25:28.338Z,28.17
2018-11-03T00:27:56.706Z,25.50
2018-11-03T00:30:25.119Z,24.57
2018-11-03T00:32:53.549Z,20.93
2018-11-03T00:35:21.911Z,22.53
2018-11-03T00:37:50.188Z,21.83
2018-11-03T00:40:18.505Z,24.60
2018-11-03T00:42:47.003Z,28.27
2018-11-03T00:45:15.295Z,24.97
2018-11-03T00:47:44.372Z,26.90
2018-11-03T00:50:14.716Z,26.73
2018-11-03T00:52:43.189Z,24.07
2018-11-03T00:55:12.131Z,21.87
2018-11-03T00:57:41.025Z,25.50
2018-11-03T01:00:14.651Z,25.80
2018-11-03T01:02:44.118Z,23.70
2018-11-03T01:05:12.988Z,24.10
2018-11-03T01:07:42.104Z,22.43
2018-11-03T01:10:10.880Z,23.03
2018-11-03T01:12:39.719Z,21.87
2018-11-03T01:15:10.207Z,22.10
2018-11-03T01:17:38.920Z,22.17
2018-11-03T01:20:09.030Z,23.57
2018-11-03T01:22:37.474Z,22.03
2018-11-03T01:25:06.038Z,23.47
2018-11-03T01:27:34.376Z,21.93
2018-11-03T01:30:02.662Z,22.83
2018-11-03T01:32:31.108Z,24.13
2018-11-03T01:34:59.358Z,23.03
2018-11-03T01:37:27.700Z,23.80
2018-11-03T01:39:56.150Z,24.70
2018-11-03T01:42:24.510Z,23.23
2018-11-03T01:44:52.871Z,25.20
2018-11-03T01:47:21.215Z,23.00
2018-11-03T01:49:49.541Z,28.23
2018-11-03T01:52:17.921Z,24.80
2018-11-03T01:54:46.255Z,22.87
2018-11-03T01:57:14.688Z,22.67
2018-11-03T01:59:43.039Z,22.53
2018-11-03T02:02:11.379Z,24.17
2018-11-03T02:04:39.708Z,22.33
2018-11-03T02:07:08.088Z,20.67
2018-11-03T02:09:36.640Z,22.10
2018-11-03T02:12:05.200Z,27.40
2018-11-03T02:14:33.497Z,27.77
2018-11-03T02:17:01.939Z,24.97
2018-11-03T02:19:30.990Z,25.57
2018-11-03T02:21:59.394Z,28.13
2018-11-03T02:24:27.937Z,25.20
2018-11-03T02:26:56.763Z,25.73
2018-11-03T02:29:25.304Z,27.30
2018-11-03T02:31:53.759Z,24.50
2018-11-03T02:34:22.064Z,24.63
2018-11-03T02:36:50.399Z,25.33
2018-11-03T02:39:18.763Z,24.93
2018-11-03T02:41:47.098Z,28.33
2018-11-03T02:44:15.427Z,26.43
2018-11-03T02:46:43.994Z,28.37
2018-11-03T02:49:12.430Z,26.60
2018-11-03T02:51:40.771Z,28.10
2018-11-03T02:54:09.099Z,28.53
2018-11-03T02:56:37.433Z,28.80
2018-11-03T02:59:05.986Z,28.70
2018-11-03T03:01:34.418Z,30.67
2018-11-03T03:04:02.838Z,28.00
2018-11-03T03:06:31.260Z,30.17
2018-11-03T03:08:59.626Z,31.37
2018-11-03T03:11:27.979Z,29.00
2018-11-03T03:13:56.406Z,29.93
2018-11-03T03:16:24.834Z,27.03
2018-11-03T03:18:53.110Z,29.43
2018-11-03T03:21:21.474Z,29.07
2018-11-03T03:23:49.811Z,33.00
2018-11-03T03:26:18.243Z,29.03
2018-11-03T03:28:46.584Z,31.27
2018-11-03T03:31:14.850Z,30.37
2018-11-03T03:33:43.186Z,29.77
2018-11-03T03:36:11.567Z,28.10
2018-11-03T03:38:39.993Z,30.20
2018-11-03T03:41:08.338Z,26.83
2018-11-03T03:43:36.649Z,28.27
2018-11-03T03:46:05.244Z,28.73
2018-11-03T03:48:33.648Z,29.47
2018-11-03T03:51:02.108Z,26.40
2018-11-03T03:53:30.485Z,28.97
2018-11-03T03:55:58.810Z,29.50
2018-11-03T03:58:27.112Z,29.47
2018-11-03T04:00:55.450Z,26.60
2018-11-03T04:03:23.900Z,27.83
2018-11-03T04:05:52.274Z,28.40
2018-11-03T04:08:20.584Z,27.23
2018-11-03T04:10:48.911Z,30.70
2018-11-03T04:13:17.231Z,29.57
2018-11-03T04:15:45.575Z,29.27
2018-11-03T04:18:13.899Z,26.47
2018-11-03T04:20:42.212Z,30.47
2018-11-03T04:23:10.547Z,29.43
2018-11-03T04:25:39.025Z,27.30
2018-11-03T04:28:09.167Z,27.03
2018-11-03T04:30:37.423Z,27.13
2018-11-03T04:33:05.978Z,27.80
2018-11-03T04:35:34.421Z,30.37
2018-11-03T04:38:02.720Z,27.63
2018-11-03T04:40:31.086Z,30.07
2018-11-03T04:42:59.398Z,30.33
2018-11-03T04:45:27.803Z,28.43
2018-11-03T04:47:56.175Z,31.50
2018-11-03T04:50:24.508Z,28.63
2018-11-03T04:52:52.784Z,29.37
2018-11-03T04:55:21.233Z,28.87
2018-11-03T04:57:49.442Z,30.33
2018-11-03T05:00:17.748Z,27.83
2018-11-03T05:02:46.175Z,27.17
2018-11-03T05:05:14.498Z,30.97
2018-11-03T05:07:42.811Z,28.57
2018-11-03T05:10:11.203Z,27.27
2018-11-03T05:12:39.490Z,28.40
2018-11-03T05:15:07.813Z,30.47
2018-11-03T05:17:36.420Z,29.30
2018-11-03T05:20:04.858Z,30.00
2018-11-03T05:22:33.156Z,28.80
2018-11-03T05:25:01.487Z,25.63
2018-11-03T05:27:29.880Z,30.20
2018-11-03T05:29:58.200Z,32.40
2018-11-03T05:32:26.498Z,27.90
2018-11-03T05:34:54.839Z,29.83
2018-11-03T05:37:23.181Z,28.17
2018-11-03T05:39:51.504Z,28.57
2018-11-03T05:42:19.807Z,29.20
2018-11-03T05:44:48.135Z,29.53
2018-11-03T05:47:16.439Z,29.37
2018-11-03T05:49:44.767Z,29.60
2018-11-03T05:52:13.114Z,29.50
2018-11-03T05:54:41.444Z,27.77
2018-11-03T05:57:09.763Z,23.30
2018-11-03T05:59:38.128Z,26.53
2018-11-03T06:02:06.502Z,24.00
2018-11-03T06:04:34.890Z,30.80
2018-11-03T06:07:03.174Z,30.93
2018-11-03T06:09:31.490Z,29.67
2018-11-03T06:11:59.793Z,34.13
2018-11-03T06:14:28.114Z,30.57
2018-11-03T06:16:56.436Z,24.40
2018-11-03T06:19:24.743Z,20.33
2018-11-03T06:21:53.178Z,25.17
2018-11-03T06:24:21.537Z,24.07
2018-11-03T06:26:49.922Z,29.33
2018-11-03T06:29:18.248Z,28.63
2018-11-03T06:31:46.543Z,25.47
2018-11-03T06:34:15.099Z,23.40
2018-11-03T06:36:43.451Z,22.37
2018-11-03T06:39:12.261Z,21.67
2018-11-03T06:41:41.889Z,23.40
2018-11-03T06:44:10.373Z,23.23
2018-11-03T06:46:40.719Z,19.07
2018-11-03T06:49:14.436Z,22.20
2018-11-03T06:51:42.847Z,21.33
2018-11-03T06:54:11.327Z,21.73
2018-11-03T06:56:39.764Z,24.77
2018-11-03T06:59:08.043Z,24.43
2018-11-03T07:01:36.351Z,21.90
2018-11-03T07:04:04.692Z,19.27
2018-11-03T07:06:34.340Z,18.80
2018-11-03T07:09:03.056Z,18.47
2018-11-03T07:11:31.718Z,17.37
2018-11-03T07:14:01.219Z,18.30
2018-11-03T07:16:29.867Z,19.33
2018-11-03T07:18:58.230Z,18.70
2018-11-03T07:21:26.583Z,16.33
2018-11-03T07:23:55.096Z,18.63
2018-11-03T07:26:23.442Z,18.23
2018-11-03T07:28:51.769Z,21.07
2018-11-03T07:31:20.114Z,24.27
2018-11-03T07:33:48.468Z,21.53
2018-11-03T07:36:17.015Z,20.37
2018-11-03T07:38:45.381Z,20.47
2018-11-03T07:41:13.862Z,15.97
2018-11-03T07:43:42.322Z,24.23
2018-11-03T07:46:11.004Z,18.83
2018-11-03T07:48:40.168Z,19.77
2018-11-03T07:51:10.897Z,24.80
2018-11-03T07:53:40.467Z,22.00
2018-11-03T07:56:09.074Z,34.27
2018-11-03T07:58:38.484Z,38.27
2018-11-03T08:01:07.395Z,25.20
2018-11-03T08:03:35.812Z,38.70
2018-11-03T08:06:04.198Z,36.73
2018-11-03T08:08:32.531Z,34.53
2018-11-03T08:11:01.314Z,32.40
2018-11-03T08:13:29.915Z,42.07
2018-11-03T08:15:58.207Z,39.57
2018-11-03T08:18:26.848Z,41.67
2018-11-03T08:20:55.162Z,39.20
2018-11-03T08:23:23.472Z,39.53
2018-11-03T08:25:51.813Z,38.90
2018-11-03T08:28:20.113Z,35.80
2018-11-03T08:30:48.446Z,35.33
2018-11-03T08:33:16.795Z,33.50
2018-11-03T08:35:46.364Z,33.30
2018-11-03T08:38:14.692Z,28.80
2018-11-03T08:40:43.042Z,29.97
2018-11-03T08:43:11.491Z,32.73
2018-11-03T08:45:39.836Z,25.60
2018-11-03T08:48:08.223Z,22.43
2018-11-03T08:50:36.491Z,21.30
2018-11-03T08:53:05.018Z,13.93
2018-11-03T08:55:33.307Z,13.50
2018-11-03T08:58:01.777Z,15.60
2018-11-03T09:00:30.281Z,12.67
2018-11-03T09:02:58.980Z,9.13
2018-11-03T09:05:27.351Z,10.30
2018-11-03T09:07:55.774Z,8.30
2018-11-03T09:10:24.258Z,9.37
2018-11-03T09:12:52.680Z,9.63
2018-11-03T09:15:21.187Z,10.07
2018-11-03T09:17:55.148Z,8.40
2018-11-03T09:20:23.525Z,7.90
2018-11-03T09:22:52.426Z,9.10
2018-11-03T09:25:21.117Z,7.40
2018-11-03T09:27:49.653Z,9.10
2018-11-03T09:30:19.292Z,10.33
2018-11-03T09:32:47.766Z,9.47
2018-11-03T09:35:16.726Z,9.30
2018-11-03T09:37:45.071Z,10.20
2018-11-03T09:40:14.704Z,10.03
2018-11-03T09:42:44.344Z,9.87
2018-11-03T09:45:13.217Z,10.60
2018-11-03T09:47:42.059Z,10.47
2018-11-03T09:50:12.029Z,13.80
2018-11-03T09:52:40.900Z,7.30
2018-11-03T09:55:11.936Z,12.17
2018-11-03T09:57:40.448Z,7.13
2018-11-03T10:00:16.189Z,12.37
2018-11-03T10:02:45.280Z,8.80
2018-11-03T10:05:15.038Z,6.23
2018-11-03T10:07:43.708Z,7.07
2018-11-03T10:10:14.755Z,9.13
2018-11-03T10:12:43.436Z,12.30
2018-11-03T10:15:12.841Z,12.63
2018-11-03T10:17:41.329Z,14.10
2018-11-03T10:20:10.216Z,14.77
2018-11-03T10:22:38.910Z,16.73
2018-11-03T10:25:13.015Z,17.00
2018-11-03T10:27:42.399Z,16.73
2018-11-03T10:30:12.299Z,15.93
2018-11-03T10:32:41.649Z,14.87
2018-11-03T10:35:11.422Z,16.10
2018-11-03T10:37:39.910Z,15.80
2018-11-03T10:40:11.497Z,15.40
2018-11-03T10:42:40.225Z,14.67
2018-11-03T10:45:10.282Z,14.33
2018-11-03T10:47:40.039Z,16.93
2018-11-03T10:50:14.203Z,15.93
2018-11-03T10:52:43.369Z,16.60
2018-11-03T10:55:13.275Z,13.33
2018-11-03T10:57:41.921Z,15.87
2018-11-03T11:01:14.991Z,13.97
2018-11-03T11:03:49.488Z,13.10
2018-11-03T11:06:23.143Z,13.33
2018-11-03T11:08:56.803Z,11.57
2018-11-03T11:11:30.650Z,14.97
2018-11-03T11:13:59.257Z,16.07
2018-11-03T11:16:27.605Z,15.47
2018-11-03T11:18:55.945Z,11.43
2018-11-03T11:21:24.275Z,13.50
2018-11-03T11:23:52.891Z,17.47
2018-11-03T11:26:21.423Z,15.90
2018-11-03T11:28:49.790Z,10.43
2018-11-03T11:31:18.428Z,14.87
2018-11-03T11:33:46.831Z,12.83
2018-11-03T11:36:15.151Z,12.80
2018-11-03T11:38:43.676Z,15.30
2018-11-03T11:41:12.106Z,16.23
2018-11-03T11:43:40.454Z,15.23
2018-11-03T11:46:09.012Z,13.90
2018-11-03T11:48:37.354Z,13.17
2018-11-03T11:51:06.015Z,14.10
2018-11-03T11:53:34.342Z,12.60
2018-11-03T11:56:02.683Z,13.33
2018-11-03T11:58:30.998Z,13.93
2018-11-03T12:00:59.376Z,15.23
2018-11-03T12:03:27.679Z,15.40
2018-11-03T12:05:55.981Z,17.23
2018-11-03T12:08:24.342Z,13.70
2018-11-03T12:10:53.780Z,16.40
2018-11-03T12:13:22.274Z,17.03
2018-11-03T12:15:50.759Z,14.80
2018-11-03T12:18:19.142Z,16.13
2018-11-03T12:20:47.583Z,15.50
2018-11-03T12:23:16.104Z,15.57
2018-11-03T12:25:44.680Z,14.97
2018-11-03T12:28:13.080Z,15.33
2018-11-03T12:30:41.491Z,15.57
2018-11-03T12:33:09.783Z,14.30
2018-11-03T12:35:39.050Z,16.83
2018-11-03T12:38:08.643Z,17.23
2018-11-03T12:40:38.191Z,18.10
2018-11-03T12:43:11.439Z,18.00
2018-11-03T12:45:39.860Z,18.17
2018-11-03T12:48:08.191Z,19.37
2018-11-03T12:50:36.537Z,18.83
2018-11-03T12:53:04.876Z,20.97
2018-11-03T12:55:33.350Z,23.03
2018-11-03T12:58:01.660Z,20.70
2018-11-03T13:00:29.989Z,21.67
2018-11-03T13:02:59.264Z,22.07
2018-11-03T13:05:29.691Z,21.40
2018-11-03T13:07:59.907Z,22.97
2018-11-03T13:10:28.830Z,22.23
2018-11-03T13:12:58.254Z,23.17
2018-11-03T13:15:26.772Z,21.37
2018-11-03T13:17:55.557Z,22.67
2018-11-03T13:20:23.865Z,23.77
2018-11-03T13:22:52.235Z,21.53
2018-11-03T13:25:20.486Z,21.87
2018-11-03T13:27:48.887Z,22.20
2018-11-03T13:30:17.196Z,26.03
2018-11-03T13:32:45.506Z,23.27
2018-11-03T13:35:14.595Z,23.23
2018-11-03T13:37:42.949Z,23.03
2018-11-03T13:40:12.631Z,23.63
2018-11-03T13:42:41.351Z,24.90
2018-11-03T13:45:11.364Z,24.37
2018-11-03T13:47:40.253Z,25.37
2018-11-03T13:50:15.609Z,22.03
2018-11-03T13:52:45.491Z,26.60
2018-11-03T13:55:14.009Z,24.67
2018-11-03T13:57:43.623Z,22.87
2018-11-03T14:00:15.731Z,23.40
2018-11-03T14:02:45.138Z,22.83
2018-11-03T14:05:13.407Z,24.57
2018-11-03T14:08:09.949Z,25.00
2018-11-03T14:10:38.756Z,25.13
2018-11-03T14:13:07.202Z,29.37
2018-11-03T14:15:35.691Z,25.03
2018-11-03T14:18:04.044Z,28.27
2018-11-03T14:20:32.346Z,29.07
2018-11-03T14:23:00.711Z,26.67
2018-11-03T14:25:29.098Z,22.87
2018-11-03T14:27:57.593Z,26.13
2018-11-03T14:30:26.024Z,31.97
2018-11-03T14:33:13.575Z,29.30
2018-11-03T14:35:42.440Z,26.67
2018-11-03T14:38:10.885Z,26.27
2018-11-03T14:40:39.242Z,25.80
2018-11-03T14:43:07.698Z,23.07
2018-11-03T14:45:36.030Z,26.60
2018-11-03T14:48:04.385Z,26.30
2018-11-03T14:50:34.953Z,26.40
2018-11-03T14:53:03.529Z,21.90
2018-11-03T14:55:31.826Z,23.00
2018-11-03T14:58:02.295Z,23.20
2018-11-03T15:00:34.659Z,29.47
2018-11-03T15:03:03.394Z,24.53
2018-11-03T15:05:31.726Z,22.47
2018-11-03T15:08:00.042Z,27.20
2018-11-03T15:10:28.351Z,28.53
2018-11-03T15:12:56.684Z,31.53
2018-11-03T15:15:25.949Z,33.70
2018-11-03T15:17:58.416Z,25.97
2018-11-03T15:20:28.366Z,21.23
2018-11-03T15:22:56.779Z,25.70
2018-11-03T15:25:25.263Z,26.00
2018-11-03T15:27:53.738Z,24.27
2018-11-03T15:30:22.186Z,22.60
2018-11-03T15:32:50.675Z,25.77
2018-11-03T15:35:19.080Z,24.07
2018-11-03T15:37:47.621Z,22.03
2018-11-03T15:40:16.605Z,20.37
2018-11-03T15:42:45.305Z,22.90
2018-11-03T15:45:15.096Z,21.63
2018-11-03T15:47:43.839Z,23.20
2018-11-03T15:50:13.124Z,21.47
2018-11-03T15:52:41.840Z,20.90
2018-11-03T15:55:10.517Z,22.67
2018-11-03T15:57:39.006Z,22.27
2018-11-03T16:00:10.891Z,20.97
2018-11-03T16:02:39.371Z,21.77
2018-11-03T16:05:07.896Z,24.60
2018-11-03T16:07:37.002Z,21.60
2018-11-03T16:10:06.418Z,19.73
2018-11-03T16:12:34.772Z,16.40
2018-11-03T16:15:03.073Z,18.07
2018-11-03T16:17:31.396Z,19.03
2018-11-03T16:19:59.713Z,18.30
2018-11-03T16:22:28.190Z,17.93
2018-11-03T16:24:56.700Z,20.07
2018-11-03T16:27:25.017Z,16.40
2018-11-03T16:29:53.474Z,22.90
2018-11-03T16:32:22.234Z,17.07
2018-11-03T16:34:50.350Z,18.87
2018-11-03T16:37:18.710Z,18.43
2018-11-03T16:39:47.081Z,22.00
2018-11-03T16:42:15.414Z,19.70
2018-11-03T16:44:44.189Z,20.27
2018-11-03T16:47:12.559Z,16.30
2018-11-03T16:49:40.886Z,15.90
2018-11-03T16:52:09.234Z,21.57
2018-11-03T16:54:37.650Z,16.43
2018-11-03T16:57:06.047Z,18.13
2018-11-03T16:59:34.380Z,20.30
2018-11-03T17:02:02.681Z,20.10
2018-11-03T17:04:31.002Z,18.67
2018-11-03T17:06:59.505Z,18.07
2018-11-03T17:09:27.819Z,19.00
2018-11-03T17:11:56.115Z,18.00
2018-11-03T17:14:24.506Z,26.97
2018-11-03T17:16:52.864Z,27.33
2018-11-03T17:19:21.210Z,22.63
2018-11-03T17:21:49.514Z,20.87
2018-11-03T17:24:17.864Z,21.50
2018-11-03T17:26:46.338Z,21.80
2018-11-03T17:29:14.667Z,21.77
2018-11-03T17:31:42.974Z,20.30
2018-11-03T17:34:11.285Z,23.70
2018-11-03T17:36:39.699Z,23.73
2018-11-03T17:39:09.894Z,19.97
2018-11-03T17:41:38.457Z,20.43
2018-11-03T17:44:07.055Z,20.07
2018-11-03T17:46:35.710Z,20.43
2018-11-03T17:49:04.233Z,23.70
2018-11-03T17:51:32.538Z,20.87
2018-11-03T17:54:01.156Z,18.83
2018-11-03T17:56:30.287Z,18.67
2018-11-03T17:58:58.692Z,17.67
2018-11-03T18:01:27.879Z,16.90
2018-11-03T18:03:56.083Z,16.67
2018-11-03T18:06:24.883Z,17.73
2018-11-03T18:08:53.666Z,18.27
2018-11-03T18:11:22.675Z,16.43
2018-11-03T18:13:51.053Z,15.93
2018-11-03T18:16:19.415Z,15.00
2018-11-03T18:18:47.865Z,16.30
2018-11-03T18:21:16.233Z,14.30
2018-11-03T18:23:44.672Z,15.90
2018-11-03T18:26:13.172Z,13.57
2018-11-03T18:28:41.928Z,16.93
2018-11-03T18:31:10.470Z,17.47
2018-11-03T18:33:39.177Z,21.27
2018-11-03T18:36:07.690Z,23.97
2018-11-03T18:38:36.412Z,17.90
2018-11-03T18:41:05.455Z,16.30
2018-11-03T18:43:33.787Z,14.73
2018-11-03T18:46:02.273Z,18.43
2018-11-03T18:51:30.372Z,18.40
2018-11-03T18:53:58.873Z,15.47
2018-11-03T18:56:27.471Z,18.33
2018-11-03T18:58:55.902Z,17.53
2018-11-03T19:01:24.271Z,18.03
2018-11-03T19:03:52.691Z,17.53
2018-11-03T19:06:21.567Z,15.20
2018-11-03T19:08:50.474Z,16.03
2018-11-03T19:11:19.121Z,15.10
2018-11-03T19:13:47.451Z,16.23
2018-11-03T19:16:16.294Z,18.53
2018-11-03T19:18:44.571Z,18.87
2018-11-03T19:21:13.042Z,15.77
2018-11-03T19:23:41.503Z,21.27
2018-11-03T19:26:09.774Z,17.33
2018-11-03T19:28:38.105Z,18.47
2018-11-03T19:31:06.434Z,20.20
2018-11-03T19:33:34.732Z,16.77
2018-11-03T19:36:03.069Z,20.70
2018-11-03T19:38:31.409Z,20.00
2018-11-03T19:41:00.122Z,22.83
2018-11-03T19:43:28.477Z,26.60
2018-11-03T19:45:56.858Z,23.90
2018-11-03T19:48:25.229Z,32.20
2018-11-03T19:50:53.604Z,35.13
2018-11-03T19:54:02.445Z,38.57
2018-11-03T19:56:31.089Z,34.73
2018-11-03T19:58:59.455Z,37.17
2018-11-03T20:01:28.005Z,38.80
2018-11-03T20:03:56.297Z,35.17
2018-11-03T20:06:24.667Z,39.40
2018-11-03T20:08:53.044Z,40.07
2018-11-03T20:11:21.407Z,32.67
2018-11-03T20:13:49.858Z,35.33
2018-11-03T20:16:18.166Z,33.07
2018-11-03T20:18:46.687Z,31.77
2018-11-03T20:21:15.025Z,31.33
2018-11-03T20:23:43.506Z,29.57
2018-11-03T20:26:12.011Z,25.97
2018-11-03T20:28:40.410Z,27.73
2018-11-03T20:31:08.812Z,26.93
2018-11-03T20:33:37.140Z,29.93
2018-11-03T20:36:05.609Z,24.33
2018-11-03T20:38:34.542Z,24.07
2018-11-03T20:41:03.029Z,22.93
2018-11-03T20:43:31.707Z,22.20
2018-11-03T20:46:00.018Z,26.63
2018-11-03T20:48:28.454Z,23.10
2018-11-03T20:51:02.032Z,24.23
2018-11-03T20:53:30.435Z,27.10
2018-11-03T20:55:58.895Z,23.03
2018-11-03T20:58:27.306Z,27.83
2018-11-03T21:00:55.641Z,24.67
2018-11-03T21:03:24.422Z,27.43
2018-11-03T21:05:52.795Z,31.40
2018-11-03T21:08:21.142Z,25.70
2018-11-03T21:10:49.500Z,30.17
2018-11-03T21:13:17.799Z,26.97
2018-11-03T21:15:46.126Z,26.93
2018-11-03T21:18:14.482Z,26.47
2018-11-03T21:20:42.818Z,31.87
2018-11-03T21:23:11.132Z,26.57
2018-11-03T21:25:39.462Z,29.70
2018-11-03T21:28:08.033Z,30.43
2018-11-03T21:30:36.367Z,28.80
2018-11-03T21:33:05.173Z,26.17
2018-11-03T21:35:33.458Z,25.67
2018-11-03T21:38:02.257Z,27.80
2018-11-03T21:40:30.712Z,24.90
2018-11-03T21:42:59.037Z,24.53
2018-11-03T21:45:27.377Z,29.37
2018-11-03T21:47:55.656Z,27.77
2018-11-03T21:50:24.266Z,33.33
2018-11-03T21:52:52.602Z,27.80
2018-11-03T21:55:21.871Z,30.43
2018-11-03T21:57:50.262Z,27.40
2018-11-03T22:00:18.603Z,32.00
2018-11-03T22:02:46.920Z,33.27
2018-11-03T22:05:15.278Z,37.83
2018-11-03T22:07:45.734Z,34.63
2018-11-03T22:10:14.036Z,31.13
2018-11-03T22:12:43.048Z,31.67
2018-11-03T22:15:11.416Z,33.37
2018-11-03T22:17:39.722Z,37.80
2018-11-03T22:20:09.406Z,34.87
2018-11-03T22:22:37.805Z,37.23
2018-11-03T22:25:07.523Z,35.67
2018-11-03T22:27:36.358Z,39.83
2018-11-03T22:30:04.699Z,39.93
2018-11-03T22:32:32.930Z,37.23
2018-11-03T22:35:01.208Z,38.40
2018-11-03T22:37:29.593Z,38.53
2018-11-03T22:39:58.590Z,47.90
2018-11-03T22:42:26.981Z,46.63
2018-11-03T22:44:55.270Z,47.60
2018-11-03T22:47:23.517Z,45.60
2018-11-03T22:49:51.833Z,47.63
2018-11-03T22:52:20.095Z,44.93
2018-11-03T22:54:48.333Z,45.53
2018-11-03T22:57:16.735Z,45.17
2018-11-03T22:59:44.918Z,47.00
2018-11-03T23:02:13.334Z,45.77
2018-11-03T23:04:41.689Z,46.60
2018-11-03T23:07:09.936Z,44.93
2018-11-03T23:09:38.198Z,51.33
2018-11-03T23:12:06.462Z,46.33
2018-11-03T23:14:34.762Z,51.37
2018-11-03T23:17:23.774Z,50.47
2018-11-03T23:19:52.025Z,52.97
2018-11-03T23:22:20.276Z,56.23
2018-11-03T23:24:48.558Z,54.47
2018-11-03T23:27:16.819Z,59.53
2018-11-03T23:29:45.329Z,61.90
2018-11-03T23:32:13.453Z,64.63
2018-11-03T23:34:41.723Z,60.90
2018-11-03T23:37:09.985Z,52.97
2018-11-03T23:39:38.279Z,57.27
2018-11-03T23:42:06.579Z,55.83
2018-11-03T23:44:34.843Z,71.87
2018-11-03T23:47:03.073Z,65.93
2018-11-03T23:49:31.350Z,62.10
2018-11-03T23:51:59.592Z,74.83
2018-11-03T23:54:28.165Z,62.93
2018-11-03T23:56:56.451Z,61.30
2018-11-03T23:59:24.791Z,58.43
